createdAt,value
2024-04-24T00:01:24.058Z,11.14
2024-04-24T00:03:50.923Z,11.30
2024-04-24T00:06:17.772Z,11.21
2024-04-24T00:08:44.581Z,10.93
2024-04-24T00:11:11.421Z,11.28
2024-04-24T00:13:38.221Z,10.94
2024-04-24T00:16:06.449Z,10.88
2024-04-24T00:18:33.285Z,10.86
2024-04-24T00:21:00.174Z,11.00
2024-04-24T00:23:27.136Z,10.82
2024-04-24T00:25:57.228Z,11.00
2024-04-24T00:28:24.225Z,11.16
2024-04-24T00:30:58.394Z,11.13
2024-04-24T00:33:25.271Z,11.22
2024-04-24T00:35:52.062Z,10.97
2024-04-24T00:38:18.859Z,10.84
2024-04-24T00:40:45.758Z,11.04
2024-04-24T00:43:12.658Z,11.17
2024-04-24T00:45:41.591Z,10.92
2024-04-24T00:48:11.231Z,11.03
2024-04-24T00:50:42.055Z,11.07
2024-04-24T00:53:09.983Z,10.97
2024-04-24T00:55:36.967Z,10.89
2024-04-24T00:58:04.087Z,10.99
2024-04-24T01:00:30.896Z,10.91
2024-04-24T01:02:57.760Z,10.87
2024-04-24T01:05:24.716Z,11.08
2024-04-24T01:07:51.562Z,11.07
2024-04-24T01:10:19.605Z,10.95
2024-04-24T01:12:46.968Z,10.99
2024-04-24T01:15:14.481Z,10.92
2024-04-24T01:17:45.192Z,10.85
2024-04-24T01:20:17.098Z,10.74
2024-04-24T01:23:08.676Z,10.98
2024-04-24T01:26:03.698Z,10.86
2024-04-24T01:28:30.731Z,10.85
2024-04-24T01:30:57.518Z,10.86
2024-04-24T01:33:24.373Z,10.62
2024-04-24T01:35:51.185Z,10.64
2024-04-24T01:38:18.082Z,10.65
2024-04-24T01:40:45.017Z,10.64
2024-04-24T01:43:14.034Z,10.66
2024-04-24T01:45:41.787Z,10.72
2024-04-24T01:48:08.721Z,10.72
2024-04-24T01:50:35.525Z,10.64
2024-04-24T01:53:02.389Z,10.68
2024-04-24T01:55:29.288Z,10.64
2024-04-24T01:57:56.065Z,10.58
2024-04-24T02:00:23.004Z,10.69
2024-04-24T02:02:49.837Z,10.57
2024-04-24T02:05:16.668Z,10.57
2024-04-24T02:07:43.556Z,10.62
2024-04-24T02:10:10.346Z,10.70
2024-04-24T02:12:37.115Z,10.43
2024-04-24T02:15:04.227Z,10.61
2024-04-24T02:17:31.224Z,10.63
2024-04-24T02:19:58.071Z,10.60
2024-04-24T02:22:24.862Z,10.46
2024-04-24T02:25:10.990Z,10.64
2024-04-24T02:27:37.738Z,10.51
2024-04-24T02:30:04.849Z,10.50
2024-04-24T02:32:31.721Z,10.29
2024-04-24T02:34:58.623Z,10.47
2024-04-24T02:37:25.381Z,10.41
2024-04-24T02:39:52.164Z,10.47
2024-04-24T02:42:19.100Z,10.42
2024-04-24T02:44:46.996Z,10.09
2024-04-24T02:47:14.088Z,10.44
2024-04-24T02:49:41.019Z,10.23
2024-04-24T02:52:07.778Z,10.37
2024-04-24T02:54:34.613Z,10.41
2024-04-24T02:57:01.370Z,10.35
2024-04-24T02:59:28.135Z,10.40
2024-04-24T03:01:55.029Z,10.23
2024-04-24T03:04:21.882Z,10.21
2024-04-24T03:06:48.622Z,10.35
2024-04-24T03:09:15.412Z,10.30
2024-04-24T03:11:42.520Z,10.24
2024-04-24T03:14:09.566Z,10.25
2024-04-24T03:16:36.597Z,10.15
2024-04-24T03:19:03.450Z,10.17
2024-04-24T03:21:30.196Z,10.02
2024-04-24T03:23:56.990Z,10.01
2024-04-24T03:26:23.944Z,10.33
2024-04-24T03:28:50.805Z,9.97
2024-04-24T03:31:17.609Z,10.05
2024-04-24T03:33:45.828Z,9.84
2024-04-24T03:36:12.644Z,10.33
2024-04-24T03:38:39.451Z,9.95
2024-04-24T03:41:06.521Z,9.91
2024-04-24T03:43:33.320Z,9.90
2024-04-24T03:46:00.945Z,9.93
2024-04-24T03:48:27.762Z,10.23
2024-04-24T03:50:54.532Z,10.14
2024-04-24T03:53:21.447Z,10.10
2024-04-24T03:55:48.239Z,9.98
2024-04-24T03:58:15.069Z,10.01
2024-04-24T04:00:41.937Z,10.26
2024-04-24T04:03:12.033Z,10.20
2024-04-24T04:05:38.861Z,10.19
2024-04-24T04:08:06.219Z,10.24
2024-04-24T04:10:33.025Z,10.42
2024-04-24T04:13:00.031Z,10.51
2024-04-24T04:15:26.802Z,10.55
2024-04-24T04:17:54.028Z,10.54
2024-04-24T04:20:21.128Z,10.72
2024-04-24T04:22:47.994Z,10.69
2024-04-24T04:25:15.002Z,11.02
2024-04-24T04:27:41.843Z,11.02
2024-04-24T04:30:10.465Z,10.96
2024-04-24T04:32:37.361Z,11.20
2024-04-24T04:35:04.307Z,10.90
2024-04-24T04:37:31.101Z,11.08
2024-04-24T04:39:57.858Z,11.30
2024-04-24T04:42:24.607Z,11.32
2024-04-24T04:44:51.433Z,11.67
2024-04-24T04:47:18.309Z,11.59
2024-04-24T04:49:45.152Z,11.61
2024-04-24T04:52:12.020Z,11.72
2024-04-24T04:54:38.852Z,11.79
2024-04-24T04:57:05.635Z,11.73
2024-04-24T04:59:32.521Z,12.23
2024-04-24T05:02:00.018Z,12.06
2024-04-24T05:04:27.057Z,12.25
2024-04-24T05:06:53.903Z,12.44
2024-04-24T05:09:20.727Z,12.44
2024-04-24T05:11:50.225Z,12.35
2024-04-24T05:14:17.427Z,12.90
2024-04-24T05:16:44.298Z,12.84
2024-04-24T05:19:11.193Z,12.83
2024-04-24T05:21:38.008Z,12.97
2024-04-24T05:24:05.233Z,13.20
2024-04-24T05:26:50.707Z,13.42
2024-04-24T05:29:17.530Z,13.70
2024-04-24T05:31:44.374Z,13.71
2024-04-24T05:34:11.280Z,13.90
2024-04-24T05:36:38.124Z,13.98
2024-04-24T05:39:04.956Z,14.15
2024-04-24T05:41:31.758Z,14.71
2024-04-24T05:43:58.625Z,14.89
2024-04-24T05:46:25.422Z,15.31
2024-04-24T05:48:52.329Z,15.58
2024-04-24T05:51:19.348Z,15.81
2024-04-24T05:53:46.202Z,15.95
2024-04-24T05:56:13.177Z,16.00
2024-04-24T05:58:40.035Z,16.45
2024-04-24T06:01:06.847Z,16.87
2024-04-24T06:03:33.667Z,16.62
2024-04-24T06:06:00.426Z,16.52
2024-04-24T06:08:27.210Z,16.01
2024-04-24T06:10:54.083Z,16.52
2024-04-24T06:13:20.962Z,17.10
2024-04-24T06:15:47.800Z,17.13
2024-04-24T06:18:14.691Z,17.74
2024-04-24T06:20:41.599Z,17.56
2024-04-24T06:23:08.566Z,18.18
2024-04-24T06:25:35.368Z,18.07
2024-04-24T06:28:02.074Z,18.18
2024-04-24T06:30:28.872Z,18.27
2024-04-24T06:32:55.733Z,18.68
2024-04-24T06:35:26.681Z,18.93
2024-04-24T06:37:54.995Z,18.29
2024-04-24T06:40:22.404Z,18.22
2024-04-24T06:42:53.035Z,18.09
2024-04-24T06:45:19.862Z,18.60
2024-04-24T06:47:46.650Z,18.79
2024-04-24T06:50:13.603Z,18.54
2024-04-24T06:52:40.406Z,17.92
2024-04-24T06:55:07.280Z,18.49
2024-04-24T06:57:34.415Z,19.12
2024-04-24T07:00:01.185Z,19.05
2024-04-24T07:02:28.058Z,19.29
2024-04-24T07:04:54.921Z,19.25
2024-04-24T07:07:23.441Z,19.33
2024-04-24T07:09:50.533Z,19.85
2024-04-24T07:12:17.284Z,19.24
2024-04-24T07:14:44.120Z,19.18
2024-04-24T07:17:11.073Z,18.90
2024-04-24T07:19:37.974Z,18.73
2024-04-24T07:22:05.146Z,18.12
2024-04-24T07:24:31.930Z,17.64
2024-04-24T07:26:58.731Z,17.76
2024-04-24T07:29:25.658Z,18.72
2024-04-24T07:31:52.569Z,18.83
2024-04-24T07:34:19.344Z,19.40
2024-04-24T07:36:46.096Z,19.75
2024-04-24T07:39:12.979Z,19.41
2024-04-24T07:41:42.994Z,19.06
2024-04-24T07:44:10.541Z,19.67
2024-04-24T07:46:37.867Z,19.81
2024-04-24T07:49:04.826Z,19.77
2024-04-24T07:51:31.704Z,19.43
2024-04-24T07:53:58.531Z,19.99
2024-04-24T07:56:25.694Z,19.98
2024-04-24T07:58:52.672Z,20.07
2024-04-24T08:01:23.479Z,20.06
2024-04-24T08:03:50.405Z,20.01
2024-04-24T08:06:17.337Z,20.09
2024-04-24T08:08:44.259Z,20.06
2024-04-24T08:11:13.694Z,19.85
2024-04-24T08:13:40.652Z,20.06
2024-04-24T08:16:07.658Z,20.80
2024-04-24T08:18:34.927Z,20.33
2024-04-24T08:21:02.615Z,20.88
2024-04-24T08:23:29.839Z,21.21
2024-04-24T08:25:56.805Z,21.15
2024-04-24T08:28:33.224Z,20.61
2024-04-24T08:31:07.261Z,21.21
2024-04-24T08:33:35.165Z,21.72
2024-04-24T08:36:16.083Z,21.40
2024-04-24T08:38:42.986Z,21.68
2024-04-24T08:41:11.898Z,21.89
2024-04-24T08:43:41.131Z,21.65
2024-04-24T08:46:09.459Z,22.11
2024-04-24T08:48:41.339Z,22.46
2024-04-24T08:51:10.067Z,22.40
2024-04-24T08:53:38.197Z,22.52
2024-04-24T08:56:07.141Z,22.49
2024-04-24T08:58:36.968Z,22.19
2024-04-24T09:01:14.416Z,22.19
2024-04-24T09:03:46.748Z,22.59
2024-04-24T09:06:17.312Z,22.23
2024-04-24T09:08:46.067Z,22.63
2024-04-24T09:11:13.341Z,22.80
2024-04-24T09:13:41.373Z,23.45
2024-04-24T09:16:09.262Z,23.46
2024-04-24T09:18:36.078Z,23.60
2024-04-24T09:21:04.658Z,22.94
2024-04-24T09:23:31.450Z,22.60
2024-04-24T09:25:59.220Z,23.09
2024-04-24T09:28:26.889Z,23.68
2024-04-24T09:30:58.691Z,23.35
2024-04-24T09:33:25.743Z,23.58
2024-04-24T09:35:52.777Z,23.72
2024-04-24T09:38:19.788Z,23.90
2024-04-24T09:40:47.051Z,23.75
2024-04-24T09:43:14.723Z,24.05
2024-04-24T09:45:41.794Z,23.75
2024-04-24T09:48:09.107Z,23.58
2024-04-24T09:50:40.219Z,23.89
2024-04-24T09:53:07.163Z,24.28
2024-04-24T09:55:39.258Z,24.27
2024-04-24T09:58:12.087Z,24.51
2024-04-24T10:00:39.490Z,24.10
2024-04-24T10:05:43.736Z,24.40
2024-04-24T10:08:25.092Z,24.57
2024-04-24T10:10:56.227Z,24.56
2024-04-24T10:13:24.651Z,24.32
2024-04-24T10:16:04.287Z,24.51
2024-04-24T10:18:31.910Z,24.34
2024-04-24T10:21:00.381Z,24.22
2024-04-24T10:23:31.112Z,24.34
2024-04-24T10:25:59.570Z,24.07
2024-04-24T10:28:28.735Z,24.37
2024-04-24T10:30:57.914Z,24.28
2024-04-24T10:33:26.550Z,24.04
2024-04-24T10:35:53.919Z,23.37
2024-04-24T10:38:20.812Z,23.31
2024-04-24T10:40:49.769Z,23.85
2024-04-24T10:43:17.667Z,24.46
2024-04-24T10:45:45.312Z,24.38
2024-04-24T10:48:13.108Z,24.61
2024-04-24T10:50:40.926Z,24.64
2024-04-24T10:53:08.782Z,24.92
2024-04-24T10:55:35.828Z,24.82
2024-04-24T10:58:17.044Z,24.55
2024-04-24T11:00:43.850Z,24.50
2024-04-24T11:03:11.057Z,25.22
2024-04-24T11:05:39.471Z,25.16
2024-04-24T11:08:06.576Z,25.20
2024-04-24T11:10:34.148Z,25.20
2024-04-24T11:13:03.766Z,24.69
2024-04-24T11:15:31.255Z,24.62
2024-04-24T11:17:58.395Z,24.75
2024-04-24T11:20:26.290Z,25.27
2024-04-24T11:22:53.140Z,24.91
2024-04-24T11:25:20.211Z,25.00
2024-04-24T11:27:47.454Z,24.83
2024-04-24T11:30:15.983Z,24.70
2024-04-24T11:32:54.924Z,24.82
2024-04-24T11:35:22.943Z,25.03
2024-04-24T11:37:51.600Z,25.13
2024-04-24T11:40:18.765Z,25.03
2024-04-24T11:42:50.133Z,25.46
2024-04-24T11:45:20.617Z,25.56
2024-04-24T11:47:53.232Z,25.62
2024-04-24T11:50:21.194Z,25.42
2024-04-24T11:52:49.487Z,25.64
2024-04-24T11:55:17.402Z,25.96
2024-04-24T11:57:45.076Z,25.78
2024-04-24T12:00:12.996Z,25.64
2024-04-24T12:02:40.229Z,25.72
2024-04-24T12:05:07.999Z,25.80
2024-04-24T12:07:43.371Z,25.86
2024-04-24T12:10:10.446Z,26.04
2024-04-24T12:12:37.302Z,26.19
2024-04-24T12:15:04.443Z,25.70
2024-04-24T12:17:31.298Z,25.86
2024-04-24T12:19:58.174Z,25.83
2024-04-24T12:22:25.058Z,25.88
2024-04-24T12:24:51.930Z,25.81
2024-04-24T12:27:21.917Z,25.65
2024-04-24T12:29:49.480Z,25.42
2024-04-24T12:32:17.349Z,25.15
2024-04-24T12:34:44.487Z,24.94
2024-04-24T12:37:11.377Z,24.86
2024-04-24T12:39:38.250Z,24.31
2024-04-24T12:42:05.336Z,24.03
2024-04-24T12:44:34.532Z,23.85
2024-04-24T12:47:01.551Z,23.65
2024-04-24T12:49:28.387Z,23.79
2024-04-24T12:51:56.165Z,23.42
2024-04-24T12:54:23.173Z,23.76
2024-04-24T12:56:49.987Z,23.53
2024-04-24T12:59:16.819Z,23.68
2024-04-24T13:01:43.699Z,23.62
2024-04-24T13:04:10.567Z,23.27
2024-04-24T13:06:39.058Z,23.35
2024-04-24T13:09:06.926Z,23.24
2024-04-24T13:11:33.842Z,23.42
2024-04-24T13:14:00.769Z,22.79
2024-04-24T13:16:27.641Z,22.65
2024-04-24T13:18:54.573Z,22.91
2024-04-24T13:21:21.491Z,23.07
2024-04-24T13:23:48.818Z,23.47
2024-04-24T13:26:15.616Z,23.14
2024-04-24T13:28:43.566Z,22.83
2024-04-24T13:31:11.803Z,22.68
2024-04-24T13:33:38.883Z,22.51
2024-04-24T13:36:05.963Z,22.40
2024-04-24T13:38:32.820Z,22.62
2024-04-24T13:41:06.252Z,22.30
2024-04-24T13:43:33.067Z,22.16
2024-04-24T13:45:59.857Z,22.11
2024-04-24T13:48:32.751Z,22.15
2024-04-24T13:51:00.164Z,22.16
2024-04-24T13:53:27.143Z,22.28
2024-04-24T13:55:55.391Z,22.14
2024-04-24T13:58:22.397Z,22.15
2024-04-24T14:00:49.194Z,22.38
2024-04-24T14:03:17.518Z,22.55
2024-04-24T14:05:46.959Z,22.59
2024-04-24T14:08:13.840Z,22.34
2024-04-24T14:10:40.799Z,22.20
2024-04-24T14:13:07.610Z,22.23
2024-04-24T14:15:34.702Z,22.21
2024-04-24T14:18:01.584Z,22.28
2024-04-24T14:20:28.534Z,22.15
2024-04-24T14:22:55.727Z,22.17
2024-04-24T14:25:22.542Z,22.18
2024-04-24T14:27:52.140Z,22.42
2024-04-24T14:30:19.890Z,22.27
2024-04-24T14:32:47.006Z,22.16
2024-04-24T14:35:14.717Z,22.13
2024-04-24T14:37:41.919Z,22.01
2024-04-24T14:40:09.230Z,22.15
2024-04-24T14:42:37.370Z,22.11
2024-04-24T14:45:05.381Z,21.82
2024-04-24T14:47:32.374Z,21.85
2024-04-24T14:49:59.499Z,21.81
2024-04-24T14:52:26.523Z,21.80
2024-04-24T14:54:53.401Z,21.84
2024-04-24T14:57:20.583Z,21.72
2024-04-24T14:59:47.422Z,21.81
2024-04-24T15:02:14.474Z,21.91
2024-04-24T15:04:41.352Z,21.88
2024-04-24T15:07:12.562Z,21.92
2024-04-24T15:09:39.876Z,21.93
2024-04-24T15:12:09.587Z,21.99
2024-04-24T15:14:36.502Z,22.14
2024-04-24T15:17:04.051Z,22.11
2024-04-24T15:19:31.082Z,21.85
2024-04-24T15:21:59.297Z,21.94
2024-04-24T15:24:26.275Z,21.87
2024-04-24T15:26:53.154Z,21.73
2024-04-24T15:29:20.055Z,21.88
2024-04-24T15:31:46.929Z,21.96
2024-04-24T15:34:15.319Z,21.90
2024-04-24T15:36:43.117Z,22.06
2024-04-24T15:39:10.878Z,21.79
2024-04-24T15:41:39.512Z,21.63
2024-04-24T15:44:06.437Z,21.60
2024-04-24T15:46:33.296Z,21.68
2024-04-24T15:49:02.624Z,21.45
2024-04-24T15:51:29.419Z,21.51
2024-04-24T15:53:56.280Z,21.65
2024-04-24T15:56:23.196Z,21.35
2024-04-24T15:58:50.020Z,21.32
2024-04-24T16:01:19.783Z,21.41
2024-04-24T16:03:46.655Z,21.37
2024-04-24T16:06:19.933Z,21.28
2024-04-24T16:08:46.832Z,21.39
2024-04-24T16:11:14.159Z,21.16
2024-04-24T16:13:41.162Z,21.29
2024-04-24T16:16:08.142Z,21.15
2024-04-24T16:18:42.528Z,21.32
2024-04-24T16:21:15.786Z,21.30
2024-04-24T16:23:42.674Z,21.53
2024-04-24T16:26:09.680Z,21.55
2024-04-24T16:28:37.653Z,21.59
2024-04-24T16:31:04.697Z,21.21
2024-04-24T16:33:33.725Z,21.35
2024-04-24T16:36:00.560Z,21.25
2024-04-24T16:38:29.066Z,20.96
2024-04-24T16:40:56.028Z,21.08
2024-04-24T16:43:24.259Z,21.01
2024-04-24T16:45:51.181Z,20.70
2024-04-24T16:48:19.766Z,20.82
2024-04-24T16:50:46.912Z,20.86
2024-04-24T16:53:13.719Z,20.64
2024-04-24T16:55:40.570Z,20.59
2024-04-24T16:58:07.606Z,20.60
2024-04-24T17:00:34.980Z,20.49
2024-04-24T17:03:02.301Z,20.43
2024-04-24T17:05:29.242Z,20.61
2024-04-24T17:07:56.351Z,20.31
2024-04-24T17:10:24.655Z,20.43
2024-04-24T17:12:51.930Z,20.07
2024-04-24T17:15:18.826Z,20.29
2024-04-24T17:17:45.889Z,20.10
2024-04-24T17:20:12.891Z,20.10
2024-04-24T17:22:40.710Z,20.24
2024-04-24T17:25:07.597Z,20.27
2024-04-24T17:27:34.388Z,20.02
2024-04-24T17:30:01.243Z,20.08
2024-04-24T17:32:28.307Z,20.16
2024-04-24T17:34:55.358Z,19.97
2024-04-24T17:37:22.273Z,19.99
2024-04-24T17:39:49.091Z,20.14
2024-04-24T17:42:16.816Z,19.93
2024-04-24T17:44:46.437Z,19.88
2024-04-24T17:47:13.337Z,19.80
2024-04-24T17:49:40.271Z,19.76
2024-04-24T17:52:07.302Z,19.49
2024-04-24T17:54:37.094Z,19.63
2024-04-24T17:57:04.157Z,19.71
2024-04-24T17:59:31.136Z,19.74
2024-04-24T18:01:57.977Z,19.54
2024-04-24T18:04:25.182Z,19.77
2024-04-24T18:06:52.155Z,19.79
2024-04-24T18:09:19.803Z,19.63
2024-04-24T18:11:47.967Z,19.55
2024-04-24T18:14:15.133Z,19.59
2024-04-24T18:16:42.456Z,19.57
2024-04-24T18:19:09.453Z,19.80
2024-04-24T18:21:39.212Z,19.51
2024-04-24T18:24:07.683Z,19.41
2024-04-24T18:26:46.478Z,19.50
2024-04-24T18:29:13.274Z,19.32
2024-04-24T18:31:40.131Z,19.20
2024-04-24T18:34:09.727Z,19.22
2024-04-24T18:36:37.447Z,19.15
2024-04-24T18:39:04.581Z,19.20
2024-04-24T18:41:31.415Z,19.07
2024-04-24T18:43:59.579Z,19.10
2024-04-24T18:49:07.392Z,19.09
2024-04-24T18:51:34.741Z,18.96
2024-04-24T18:54:01.513Z,18.77
2024-04-24T18:56:28.331Z,19.12
2024-04-24T18:58:55.460Z,18.88
2024-04-24T19:01:23.446Z,18.75
2024-04-24T19:03:50.338Z,18.70
2024-04-24T19:06:17.173Z,18.74
2024-04-24T19:08:44.097Z,18.60
2024-04-24T19:11:11.000Z,18.75
2024-04-24T19:13:38.209Z,18.39
2024-04-24T19:16:05.395Z,18.57
2024-04-24T19:18:34.937Z,18.54
2024-04-24T19:21:07.849Z,18.39
2024-04-24T19:23:34.968Z,18.64
2024-04-24T19:26:02.089Z,18.25
2024-04-24T19:28:28.979Z,18.30
2024-04-24T19:30:55.755Z,18.29
2024-04-24T19:33:23.032Z,18.13
2024-04-24T19:35:53.394Z,18.32
2024-04-24T19:38:23.186Z,18.30
2024-04-24T19:40:50.169Z,18.16
2024-04-24T19:43:18.358Z,18.19
2024-04-24T19:45:45.179Z,18.06
2024-04-24T19:48:13.067Z,18.03
2024-04-24T19:50:39.955Z,18.09
2024-04-24T19:53:06.912Z,17.93
2024-04-24T19:55:36.213Z,17.95
2024-04-24T19:58:03.324Z,18.19
2024-04-24T20:00:30.160Z,17.84
2024-04-24T20:02:57.280Z,17.73
2024-04-24T20:05:24.727Z,17.85
2024-04-24T20:07:51.762Z,18.04
2024-04-24T20:10:18.619Z,17.77
2024-04-24T20:12:45.523Z,17.84
2024-04-24T20:15:12.320Z,17.74
2024-04-24T20:17:39.232Z,17.97
2024-04-24T20:20:06.825Z,17.84
2024-04-24T20:22:33.622Z,17.76
2024-04-24T20:25:00.598Z,17.70
2024-04-24T20:27:27.428Z,17.83
2024-04-24T20:29:54.164Z,17.63
2024-04-24T20:32:21.010Z,17.73
2024-04-24T20:34:47.873Z,17.63
2024-04-24T20:37:14.682Z,17.61
2024-04-24T20:39:42.096Z,17.59
2024-04-24T20:42:11.303Z,17.60
2024-04-24T20:44:39.344Z,17.67
2024-04-24T20:47:06.359Z,17.46
2024-04-24T20:49:33.174Z,17.46
2024-04-24T20:51:59.940Z,17.33
2024-04-24T20:54:26.717Z,17.44
2024-04-24T20:56:53.508Z,17.35
2024-04-24T20:59:21.478Z,17.33
2024-04-24T21:01:48.316Z,17.26
2024-04-24T21:04:15.183Z,17.19
2024-04-24T21:06:42.057Z,17.17
2024-04-24T21:09:08.824Z,17.27
2024-04-24T21:11:35.729Z,17.30
2024-04-24T21:14:02.832Z,17.28
2024-04-24T21:16:29.671Z,17.26
2024-04-24T21:18:58.612Z,17.08
2024-04-24T21:21:25.442Z,17.01
2024-04-24T21:23:52.395Z,17.13
2024-04-24T21:26:19.291Z,16.90
2024-04-24T21:28:46.363Z,17.30
2024-04-24T21:31:13.196Z,17.22
2024-04-24T21:33:40.038Z,16.99
2024-04-24T21:36:07.377Z,16.95
2024-04-24T21:38:37.116Z,17.05
2024-04-24T21:41:07.939Z,17.09
2024-04-24T21:43:34.731Z,17.04
2024-04-24T21:46:07.585Z,16.88
2024-04-24T21:48:34.517Z,16.90
2024-04-24T21:51:01.616Z,17.01
2024-04-24T21:53:28.589Z,16.76
2024-04-24T21:55:58.177Z,16.83
2024-04-24T21:58:25.708Z,16.75
2024-04-24T22:00:52.647Z,16.75
2024-04-24T22:03:21.045Z,16.47
2024-04-24T22:05:47.892Z,16.65
2024-04-24T22:08:14.859Z,16.78
2024-04-24T22:10:42.013Z,16.64
2024-04-24T22:13:08.831Z,16.60
2024-04-24T22:15:36.799Z,16.58
2024-04-24T22:18:05.509Z,16.45
2024-04-24T22:20:32.569Z,16.63
2024-04-24T22:22:59.391Z,16.59
2024-04-24T22:25:26.141Z,16.24
2024-04-24T22:27:53.009Z,16.38
2024-04-24T22:30:19.756Z,16.34
2024-04-24T22:32:46.741Z,16.15
2024-04-24T22:35:13.719Z,16.18
2024-04-24T22:37:40.608Z,16.52
2024-04-24T22:40:07.941Z,16.30
2024-04-24T22:42:34.699Z,16.34
2024-04-24T22:45:01.503Z,16.34
2024-04-24T22:47:28.299Z,16.25
2024-04-24T22:49:55.142Z,16.35
2024-04-24T22:52:21.933Z,16.23
2024-04-24T22:54:48.704Z,16.21
2024-04-24T22:57:15.535Z,16.31
2024-04-24T22:59:42.885Z,16.33
2024-04-24T23:02:09.806Z,16.50
2024-04-24T23:04:36.642Z,16.17
2024-04-24T23:07:03.589Z,16.38
2024-04-24T23:09:30.473Z,16.33
2024-04-24T23:11:57.373Z,16.30
2024-04-24T23:14:28.225Z,16.37
2024-04-24T23:16:55.585Z,16.43
2024-04-24T23:19:22.834Z,16.33
2024-04-24T23:21:49.940Z,16.47
2024-04-24T23:24:16.693Z,16.16
2024-04-24T23:26:48.840Z,16.14
2024-04-24T23:29:16.039Z,16.14
2024-04-24T23:31:42.891Z,16.50
2024-04-24T23:34:09.660Z,16.19
2024-04-24T23:36:36.530Z,16.37
2024-04-24T23:39:03.288Z,16.24
2024-04-24T23:41:30.035Z,16.43
2024-04-24T23:43:56.827Z,16.42
2024-04-24T23:46:23.801Z,16.49
2024-04-24T23:48:50.952Z,16.49
2024-04-24T23:51:17.780Z,16.35
2024-04-24T23:53:44.669Z,16.34
2024-04-24T23:56:11.480Z,16.05
2024-04-24T23:58:38.220Z,16.21
